Time;durP1;ratioP1;P1;durP2;ratioP2;P2;SDS_P1;SDS_P2;PMS_P1;PMS_P2;Temp;Humidity;BMP_temperature;BMP_pressure;BME280_temperature;BME280_humidity;BME280_pressure;Samples;Min_cycle;Max_cycle;Signal;HPM_P1;HPM_P2
2023/12/21 00:01:05;;;;;;;59.70;35.92;;;;;;;;;;5075399;28;20086;-61
2023/12/21 00:03:32;;;;;;;55.67;35.13;;;;;;;;;;5075439;28;20068;-60
2023/12/21 00:06:00;;;;;;;56.55;33.97;;;;;;;;;;5075129;28;20044;-61
2023/12/21 00:08:30;;;;;;;53.20;33.65;;;;;;;;;;5075114;28;20040;-61
2023/12/21 00:10:58;;;;;;;54.00;32.10;;;;;;;;;;5075296;28;20044;-61
2023/12/21 00:13:26;;;;;;;51.28;32.00;;;;;;;;;;5075146;28;20162;-61
2023/12/21 00:15:54;;;;;;;51.13;32.83;;;;;;;;;;5075053;28;20037;-61
2023/12/21 00:18:21;;;;;;;52.75;31.73;;;;;;;;;;5074990;28;20047;-61
2023/12/21 00:20:49;;;;;;;51.90;31.73;;;;;;;;;;5074855;28;20045;-61
2023/12/21 00:23:17;;;;;;;51.70;32.00;;;;;;;;;;5074956;28;20063;-61
2023/12/21 00:25:44;;;;;;;48.35;30.40;;;;;;;;;;5074872;28;20115;-61
2023/12/21 00:28:12;;;;;;;50.47;31.67;;;;;;;;;;5075132;28;20037;-60
2023/12/21 00:30:39;;;;;;;48.80;29.65;;;;;;;;;;5074999;28;20044;-61
2023/12/21 00:33:07;;;;;;;45.97;28.48;;;;;;;;;;5074474;28;20063;-61
2023/12/21 00:35:35;;;;;;;48.92;29.23;;;;;;;;;;5074706;28;20102;-61
2023/12/21 00:38:03;;;;;;;45.80;28.63;;;;;;;;;;5074913;28;20045;-61
2023/12/21 00:40:30;;;;;;;43.38;27.00;;;;;;;;;;5073471;28;20133;-61
2023/12/21 00:42:58;;;;;;;44.17;27.38;;;;;;;;;;5074673;28;20490;-61
2023/12/21 00:45:26;;;;;;;39.65;27.23;;;;;;;;;;5074427;28;20049;-61
2023/12/21 00:47:53;;;;;;;40.72;24.90;;;;;;;;;;5074199;28;20052;-61
2023/12/21 00:50:21;;;;;;;39.40;25.17;;;;;;;;;;5074523;28;20112;-61
2023/12/21 00:52:48;;;;;;;41.22;26.08;;;;;;;;;;5074003;28;20036;-61
2023/12/21 00:55:16;;;;;;;42.08;26.25;;;;;;;;;;5074633;28;20044;-61
2023/12/21 00:57:43;;;;;;;41.88;25.88;;;;;;;;;;5074232;28;20127;-61
2023/12/21 01:00:12;;;;;;;41.20;25.55;;;;;;;;;;5074582;28;20552;-61
2023/12/21 01:02:39;;;;;;;42.30;25.40;;;;;;;;;;5074525;28;20048;-61
2023/12/21 01:05:07;;;;;;;37.58;24.85;;;;;;;;;;5074181;28;20044;-61
2023/12/21 01:07:34;;;;;;;42.40;24.40;;;;;;;;;;5074099;28;20115;-60
2023/12/21 01:10:05;;;;;;;41.45;26.02;;;;;;;;;;5074153;28;20087;-61
2023/12/21 01:12:32;;;;;;;38.72;24.42;;;;;;;;;;5074338;28;20036;-61
2023/12/21 01:15:00;;;;;;;41.20;25.73;;;;;;;;;;5073976;28;20047;-61
2023/12/21 01:17:28;;;;;;;44.10;26.08;;;;;;;;;;5072845;28;20413;-61
2023/12/21 01:19:56;;;;;;;40.10;25.60;;;;;;;;;;5073965;28;20051;-61
2023/12/21 01:22:23;;;;;;;39.58;25.35;;;;;;;;;;5073911;28;20040;-60
2023/12/21 01:24:51;;;;;;;45.58;26.23;;;;;;;;;;5073754;28;20070;-61
2023/12/21 01:27:20;;;;;;;42.65;26.50;;;;;;;;;;5073930;28;20127;-61
2023/12/21 01:29:59;;;;;;;43.75;26.27;;;;;;;;;;5073751;28;20486;-61
2023/12/21 01:32:26;;;;;;;46.75;29.05;;;;;;;;;;5073749;28;20042;-61
2023/12/21 01:34:54;;;;;;;47.20;29.33;;;;;;;;;;5073594;28;20040;-61
2023/12/21 01:37:22;;;;;;;51.85;31.63;;;;;;;;;;5073766;28;20045;-61
2023/12/21 01:39:50;;;;;;;49.78;30.40;;;;;;;;;;5073430;28;20445;-61
2023/12/21 01:42:17;;;;;;;53.15;32.13;;;;;;;;;;5073426;28;20056;-60
2023/12/21 01:44:45;;;;;;;53.97;32.13;;;;;;;;;;5073528;28;20043;-61
2023/12/21 01:47:13;;;;;;;55.67;31.85;;;;;;;;;;5072918;28;20044;-60
2023/12/21 01:49:41;;;;;;;56.67;32.15;;;;;;;;;;5073358;28;20048;-61
2023/12/21 01:52:09;;;;;;;59.33;32.95;;;;;;;;;;5073197;28;20045;-61
2023/12/21 01:54:37;;;;;;;59.90;33.70;;;;;;;;;;5073091;28;20326;-61
2023/12/21 01:57:06;;;;;;;56.58;32.95;;;;;;;;;;5073400;28;20411;-61
2023/12/21 01:59:34;;;;;;;56.97;32.30;;;;;;;;;;5073404;28;20402;-61
2023/12/21 02:02:01;;;;;;;60.05;33.28;;;;;;;;;;5073059;28;20093;-61
2023/12/21 02:04:29;;;;;;;58.38;32.92;;;;;;;;;;5073048;28;20120;-61
2023/12/21 02:06:57;;;;;;;55.78;32.70;;;;;;;;;;5071761;28;20139;-61
2023/12/21 02:09:25;;;;;;;56.28;33.53;;;;;;;;;;5072495;28;20494;-61
2023/12/21 02:11:52;;;;;;;57.85;33.67;;;;;;;;;;5072928;28;20123;-61
2023/12/21 02:14:20;;;;;;;58.40;33.00;;;;;;;;;;5072843;28;20040;-60
2023/12/21 02:16:48;;;;;;;57.88;33.53;;;;;;;;;;5071678;28;20041;-61
2023/12/21 02:19:16;;;;;;;56.65;33.22;;;;;;;;;;5072766;28;20123;-61
2023/12/21 02:21:46;;;;;;;55.88;32.30;;;;;;;;;;5072817;28;20551;-61
2023/12/21 02:24:18;;;;;;;56.55;33.72;;;;;;;;;;5072752;28;20037;-61
2023/12/21 02:26:45;;;;;;;54.13;31.10;;;;;;;;;;5072782;28;20436;-61
2023/12/21 02:29:13;;;;;;;56.83;31.42;;;;;;;;;;5072928;28;20037;-61
2023/12/21 02:31:40;;;;;;;60.97;33.05;;;;;;;;;;5072598;28;20059;-61
2023/12/21 02:34:09;;;;;;;60.47;33.13;;;;;;;;;;5072625;28;20478;-61
2023/12/21 02:36:37;;;;;;;59.72;32.67;;;;;;;;;;5072567;28;20544;-61
2023/12/21 02:39:04;;;;;;;59.45;33.47;;;;;;;;;;5072592;28;20128;-61
2023/12/21 02:41:32;;;;;;;58.42;33.38;;;;;;;;;;5072742;28;20051;-61
2023/12/21 02:43:59;;;;;;;55.78;32.70;;;;;;;;;;5072562;28;20046;-61
2023/12/21 02:46:27;;;;;;;57.67;33.40;;;;;;;;;;5072213;28;20115;-61
2023/12/21 02:48:55;;;;;;;63.97;33.53;;;;;;;;;;5072483;28;20440;-61
2023/12/21 02:51:22;;;;;;;61.17;32.22;;;;;;;;;;5072532;28;20040;-61
2023/12/21 02:53:50;;;;;;;64.68;33.97;;;;;;;;;;5072719;28;20127;-61
2023/12/21 02:56:18;;;;;;;62.53;33.35;;;;;;;;;;5072456;28;20040;-61
2023/12/21 02:58:45;;;;;;;65.10;32.92;;;;;;;;;;5072437;28;20101;-61
2023/12/21 03:01:13;;;;;;;61.63;33.38;;;;;;;;;;5072409;28;20055;-61
2023/12/21 03:03:40;;;;;;;61.78;32.10;;;;;;;;;;5072403;28;20044;-61
2023/12/21 03:06:08;;;;;;;58.15;31.88;;;;;;;;;;5072269;28;20040;-61
2023/12/21 03:08:35;;;;;;;55.67;31.50;;;;;;;;;;5072347;28;20498;-61
2023/12/21 03:11:03;;;;;;;57.88;32.85;;;;;;;;;;5072307;28;20037;-60
2023/12/21 03:13:30;;;;;;;55.65;31.60;;;;;;;;;;5072308;28;20075;-61
2023/12/21 03:15:58;;;;;;;57.05;32.15;;;;;;;;;;5072310;28;20044;-61
2023/12/21 03:18:25;;;;;;;61.03;31.25;;;;;;;;;;5072456;28;20040;-61
2023/12/21 03:20:53;;;;;;;57.28;30.90;;;;;;;;;;5073034;28;20490;-61
2023/12/21 03:23:20;;;;;;;59.22;32.42;;;;;;;;;;5076247;28;20044;-61
2023/12/21 03:25:48;;;;;;;58.25;31.52;;;;;;;;;;5076133;28;20051;-61
2023/12/21 03:28:16;;;;;;;56.47;30.60;;;;;;;;;;5076173;28;20044;-61
2023/12/21 03:30:43;;;;;;;61.80;31.90;;;;;;;;;;5075859;28;20058;-61
2023/12/21 03:33:11;;;;;;;55.38;29.77;;;;;;;;;;5075930;28;20510;-61
2023/12/21 03:35:38;;;;;;;53.45;30.10;;;;;;;;;;5075908;28;20040;-60
2023/12/21 03:38:06;;;;;;;51.35;29.20;;;;;;;;;;5074845;28;20107;-61
2023/12/21 03:40:33;;;;;;;57.85;31.17;;;;;;;;;;5075878;28;20401;-61
2023/12/21 03:43:02;;;;;;;55.10;29.35;;;;;;;;;;5075648;28;20064;-61
2023/12/21 03:45:29;;;;;;;58.00;30.70;;;;;;;;;;5075722;28;20494;-61
2023/12/21 03:47:57;;;;;;;52.55;28.58;;;;;;;;;;5075371;28;20044;-61
2023/12/21 03:50:25;;;;;;;55.50;29.25;;;;;;;;;;5075780;28;20075;-61
2023/12/21 03:52:52;;;;;;;55.65;29.60;;;;;;;;;;5075558;28;20398;-61
2023/12/21 03:55:22;;;;;;;57.47;30.20;;;;;;;;;;5074593;28;20032;-60
2023/12/21 03:57:49;;;;;;;54.30;28.48;;;;;;;;;;5075747;28;20084;-61
2023/12/21 04:00:20;;;;;;;53.92;27.70;;;;;;;;;;5075378;28;20377;-61
2023/12/21 04:02:48;;;;;;;54.63;29.52;;;;;;;;;;5075657;28;20414;-61
2023/12/21 04:05:16;;;;;;;53.58;28.38;;;;;;;;;;5075224;28;20056;-61
2023/12/21 04:07:43;;;;;;;51.28;27.13;;;;;;;;;;5075274;28;20044;-61
2023/12/21 04:10:11;;;;;;;49.38;26.88;;;;;;;;;;5075242;28;20036;-61
2023/12/21 04:12:38;;;;;;;51.10;27.08;;;;;;;;;;5075446;28;20043;-60
2023/12/21 04:15:06;;;;;;;49.53;26.08;;;;;;;;;;5075114;28;20071;-60
2023/12/21 04:17:34;;;;;;;53.10;26.65;;;;;;;;;;5075106;28;20040;-61
2023/12/21 04:20:01;;;;;;;46.40;25.88;;;;;;;;;;5070730;28;20033;-61
2023/12/21 04:22:29;;;;;;;46.40;25.30;;;;;;;;;;5055145;28;20127;-60
2023/12/21 04:24:56;;;;;;;48.10;25.40;;;;;;;;;;5054965;28;20462;-61
2023/12/21 04:27:24;;;;;;;50.20;25.85;;;;;;;;;;5054942;28;20049;-61
2023/12/21 04:29:52;;;;;;;47.50;24.95;;;;;;;;;;5054673;28;20073;-61
2023/12/21 04:32:19;;;;;;;49.10;24.77;;;;;;;;;;5053364;28;20116;-61
2023/12/21 04:34:47;;;;;;;46.85;23.45;;;;;;;;;;5054786;28;20406;-60
2023/12/21 04:37:15;;;;;;;46.17;25.35;;;;;;;;;;5054653;28;20068;-61
2023/12/21 04:39:42;;;;;;;45.15;23.42;;;;;;;;;;5054624;28;20596;-60
2023/12/21 04:42:10;;;;;;;45.15;23.15;;;;;;;;;;5054525;28;20660;-62
2023/12/21 04:44:38;;;;;;;42.40;22.35;;;;;;;;;;5054710;28;20116;-62
2023/12/21 04:47:08;;;;;;;44.00;23.52;;;;;;;;;;5054263;28;20053;-62
2023/12/21 04:49:49;;;;;;;43.95;22.83;;;;;;;;;;5054419;28;20033;-62
2023/12/21 04:52:17;;;;;;;47.15;22.38;;;;;;;;;;5043366;28;20485;-62
2023/12/21 04:54:45;;;;;;;45.78;23.80;;;;;;;;;;5064200;28;20119;-62
2023/12/21 04:57:12;;;;;;;47.63;23.48;;;;;;;;;;5074166;28;20059;-63
2023/12/21 04:59:40;;;;;;;42.10;22.45;;;;;;;;;;5074241;28;20040;-62
2023/12/21 05:02:08;;;;;;;47.45;23.77;;;;;;;;;;5074155;28;20036;-62
2023/12/21 05:04:35;;;;;;;45.13;22.80;;;;;;;;;;5074204;28;20072;-62
2023/12/21 05:07:08;;;;;;;47.63;23.95;;;;;;;;;;5074216;28;20371;-62
2023/12/21 05:09:37;;;;;;;40.40;20.70;;;;;;;;;;5074162;28;20131;-62
2023/12/21 05:12:05;;;;;;;42.72;21.65;;;;;;;;;;5073046;28;20115;-61
2023/12/21 05:14:32;;;;;;;45.92;22.45;;;;;;;;;;5074103;28;20039;-63
2023/12/21 05:17:00;;;;;;;49.00;25.83;;;;;;;;;;5072359;28;20085;-62
2023/12/21 05:19:28;;;;;;;48.28;25.83;;;;;;;;;;5072189;28;20044;-62
2023/12/21 05:21:56;;;;;;;43.58;23.13;;;;;;;;;;5072162;28;20048;-61
2023/12/21 05:24:24;;;;;;;41.67;21.85;;;;;;;;;;5072003;28;20037;-62
2023/12/21 05:26:51;;;;;;;40.22;21.88;;;;;;;;;;5071827;28;20102;-61
2023/12/21 05:29:19;;;;;;;42.17;22.15;;;;;;;;;;5072077;28;20506;-61
2023/12/21 05:31:46;;;;;;;46.30;22.95;;;;;;;;;;5071401;28;20037;-62
2023/12/21 05:34:14;;;;;;;48.42;23.80;;;;;;;;;;5073571;28;20124;-62
2023/12/21 05:36:42;;;;;;;44.65;23.25;;;;;;;;;;5073535;28;20364;-62
2023/12/21 05:39:10;;;;;;;42.55;22.58;;;;;;;;;;5073625;28;20037;-62
2023/12/21 05:41:45;;;;;;;47.35;23.05;;;;;;;;;;5073745;28;20068;-62
2023/12/21 05:44:13;;;;;;;45.80;22.33;;;;;;;;;;5071502;28;20044;-62
2023/12/21 05:46:42;;;;;;;44.85;23.02;;;;;;;;;;5073325;28;20041;-62
2023/12/21 05:49:10;;;;;;;44.00;22.48;;;;;;;;;;5073223;28;20501;-62
2023/12/21 05:51:38;;;;;;;42.65;22.45;;;;;;;;;;5073398;28;20060;-61
2023/12/21 05:54:06;;;;;;;53.25;26.27;;;;;;;;;;5073348;28;20037;-62
2023/12/21 05:56:36;;;;;;;48.97;26.90;;;;;;;;;;5073329;28;20402;-61
2023/12/21 05:59:04;;;;;;;41.67;23.45;;;;;;;;;;5073043;28;20037;-61
2023/12/21 06:01:34;;;;;;;44.10;22.15;;;;;;;;;;5073282;28;20059;-61
2023/12/21 06:04:02;;;;;;;44.83;23.67;;;;;;;;;;5072564;28;20060;-61
2023/12/21 06:06:30;;;;;;;43.15;23.45;;;;;;;;;;5073236;28;20041;-61
2023/12/21 06:08:57;;;;;;;43.10;23.13;;;;;;;;;;5073208;28;20056;-61
2023/12/21 06:11:25;;;;;;;47.40;23.95;;;;;;;;;;5072022;28;20037;-61
2023/12/21 06:13:52;;;;;;;48.13;24.17;;;;;;;;;;5072813;28;20371;-61
2023/12/21 06:16:20;;;;;;;47.63;24.60;;;;;;;;;;5073224;28;20064;-61
2023/12/21 06:18:48;;;;;;;48.28;24.58;;;;;;;;;;5072763;28;20048;-61
2023/12/21 06:21:16;;;;;;;50.05;25.90;;;;;;;;;;5072851;28;20401;-61
2023/12/21 06:23:44;;;;;;;49.25;25.88;;;;;;;;;;5071568;28;20450;-61
2023/12/21 06:26:12;;;;;;;55.58;25.50;;;;;;;;;;5072787;28;20044;-61
2023/12/21 06:28:40;;;;;;;48.08;24.48;;;;;;;;;;5072698;28;20033;-61
2023/12/21 06:31:16;;;;;;;49.08;25.48;;;;;;;;;;5072636;28;20505;-62
2023/12/21 06:33:44;;;;;;;54.78;27.73;;;;;;;;;;5071327;28;20409;-62
2023/12/21 06:36:12;;;;;;;50.17;28.65;;;;;;;;;;5071412;28;20032;-62
2023/12/21 06:38:39;;;;;;;50.78;28.52;;;;;;;;;;5072909;28;20041;-62
2023/12/21 06:41:12;;;;;;;50.38;27.45;;;;;;;;;;5072683;28;20495;-61
2023/12/21 06:43:39;;;;;;;53.78;29.00;;;;;;;;;;5072830;28;20512;-61
2023/12/21 06:46:14;;;;;;;50.60;27.85;;;;;;;;;;5072573;28;20052;-61
2023/12/21 06:48:41;;;;;;;47.05;26.90;;;;;;;;;;5072421;28;20263;-61
2023/12/21 06:51:11;;;;;;;47.75;26.95;;;;;;;;;;5072478;28;20106;-61
2023/12/21 06:53:38;;;;;;;57.58;29.92;;;;;;;;;;5072514;28;20070;-61
2023/12/21 06:56:07;;;;;;;64.95;34.92;;;;;;;;;;5076917;28;20040;-61
2023/12/21 06:58:54;;;;;;;65.40;34.35;;;;;;;;;;5079037;28;20078;-61
2023/12/21 07:01:28;;;;;;;63.75;35.00;;;;;;;;;;5078904;28;20044;-61
2023/12/21 07:03:56;;;;;;;70.82;38.28;;;;;;;;;;5078863;28;20098;-61
2023/12/21 07:06:28;;;;;;;69.60;36.40;;;;;;;;;;5079270;28;20409;-61
2023/12/21 07:08:55;;;;;;;73.55;37.08;;;;;;;;;;5078752;28;20055;-61
2023/12/21 07:11:23;;;;;;;73.43;41.20;;;;;;;;;;5078854;28;20040;-61
2023/12/21 07:13:51;;;;;;;81.82;44.70;;;;;;;;;;5078882;28;20044;-62
2023/12/21 07:16:18;;;;;;;86.93;42.28;;;;;;;;;;5078927;28;20119;-61
2023/12/21 07:18:46;;;;;;;65.20;34.22;;;;;;;;;;5078863;28;20040;-61
2023/12/21 07:21:13;;;;;;;60.30;31.63;;;;;;;;;;5077986;28;20458;-61
2023/12/21 07:23:41;;;;;;;61.97;31.75;;;;;;;;;;5078838;28;20048;-61
2023/12/21 07:26:12;;;;;;;54.28;27.20;;;;;;;;;;5078763;28;20040;-61
2023/12/21 07:28:40;;;;;;;49.92;23.45;;;;;;;;;;5078593;28;20047;-61
2023/12/21 07:31:09;;;;;;;36.90;21.13;;;;;;;;;;5079101;28;20120;-61
2023/12/21 07:33:38;;;;;;;36.00;19.58;;;;;;;;;;5078633;28;20051;-62
2023/12/21 07:36:07;;;;;;;36.17;19.90;;;;;;;;;;5078713;28;20040;-61
2023/12/21 07:38:36;;;;;;;40.35;21.98;;;;;;;;;;5078764;28;20379;-61
2023/12/21 07:41:04;;;;;;;41.33;23.55;;;;;;;;;;5078748;28;20048;-61
2023/12/21 07:43:32;;;;;;;40.42;22.48;;;;;;;;;;5078710;28;20048;-61
2023/12/21 07:45:59;;;;;;;47.67;23.63;;;;;;;;;;5078693;28;20116;-61
2023/12/21 07:48:27;;;;;;;48.40;26.20;;;;;;;;;;5078446;28;20045;-61
2023/12/21 07:50:54;;;;;;;40.80;24.30;;;;;;;;;;5077648;28;20090;-61
2023/12/21 07:53:22;;;;;;;47.95;25.92;;;;;;;;;;5078910;28;20040;-61
2023/12/21 07:55:49;;;;;;;46.72;26.45;;;;;;;;;;5078878;28;20040;-61
2023/12/21 07:58:17;;;;;;;49.15;27.17;;;;;;;;;;5078558;28;20037;-61
2023/12/21 08:00:46;;;;;;;55.42;29.05;;;;;;;;;;5078549;28;20056;-61
2023/12/21 08:03:13;;;;;;;51.45;28.15;;;;;;;;;;5078456;28;20046;-61
2023/12/21 08:05:41;;;;;;;53.13;30.00;;;;;;;;;;5077405;28;20115;-61
2023/12/21 08:08:08;;;;;;;55.42;31.50;;;;;;;;;;5074814;28;20032;-61
2023/12/21 08:10:36;;;;;;;61.33;33.65;;;;;;;;;;5074268;28;20414;-61
2023/12/21 08:13:03;;;;;;;57.10;32.25;;;;;;;;;;5075448;28;20119;-61
2023/12/21 08:15:31;;;;;;;60.58;33.90;;;;;;;;;;5075345;28;20513;-61
2023/12/21 08:17:59;;;;;;;61.53;33.00;;;;;;;;;;5075437;28;20044;-61
2023/12/21 08:20:27;;;;;;;56.78;32.88;;;;;;;;;;5074977;28;20044;-61
2023/12/21 08:22:55;;;;;;;64.38;36.20;;;;;;;;;;5075201;28;20395;-61
2023/12/21 08:25:23;;;;;;;62.00;34.42;;;;;;;;;;5073694;28;20080;-61
2023/12/21 08:27:50;;;;;;;66.15;36.72;;;;;;;;;;5074844;28;20033;-61
2023/12/21 08:30:18;;;;;;;68.32;37.85;;;;;;;;;;5075057;28;20072;-61
2023/12/21 08:32:49;;;;;;;65.63;37.03;;;;;;;;;;5075163;28;20035;-61
2023/12/21 08:35:17;;;;;;;66.15;36.67;;;;;;;;;;5074857;28;20053;-61
2023/12/21 08:37:45;;;;;;;65.50;37.20;;;;;;;;;;5074795;28;20123;-61
2023/12/21 08:40:13;;;;;;;69.70;37.63;;;;;;;;;;5074810;28;20040;-61
2023/12/21 08:42:41;;;;;;;70.30;38.72;;;;;;;;;;5074758;28;20040;-61
2023/12/21 08:45:09;;;;;;;71.63;38.20;;;;;;;;;;5074912;28;20047;-61
2023/12/21 08:47:40;;;;;;;69.55;37.85;;;;;;;;;;5074386;28;20124;-61
2023/12/21 08:50:09;;;;;;;67.63;38.22;;;;;;;;;;5074650;28;20053;-61
2023/12/21 08:52:38;;;;;;;74.03;40.65;;;;;;;;;;5074465;28;20531;-61
2023/12/21 08:55:07;;;;;;;75.40;40.17;;;;;;;;;;5074466;28;20041;-61
2023/12/21 08:57:36;;;;;;;73.10;39.40;;;;;;;;;;5074505;28;20045;-61
2023/12/21 09:00:14;;;;;;;77.28;41.60;;;;;;;;;;5074540;28;20514;-61
2023/12/21 09:02:42;;;;;;;79.05;41.72;;;;;;;;;;5074419;28;20398;-61
2023/12/21 09:05:12;;;;;;;78.15;43.13;;;;;;;;;;5074340;28;20123;-61
2023/12/21 09:07:40;;;;;;;81.40;42.90;;;;;;;;;;5074180;28;20072;-61
2023/12/21 09:10:08;;;;;;;78.40;42.00;;;;;;;;;;5074237;28;20132;-61
2023/12/21 09:12:36;;;;;;;74.75;39.92;;;;;;;;;;5074035;28;20048;-61
2023/12/21 09:15:04;;;;;;;71.25;40.38;;;;;;;;;;5074351;28;20047;-61
2023/12/21 09:17:32;;;;;;;83.15;41.20;;;;;;;;;;5074041;28;20143;-61
2023/12/21 09:19:59;;;;;;;76.90;41.50;;;;;;;;;;5072792;28;20037;-61
2023/12/21 09:22:27;;;;;;;77.10;42.35;;;;;;;;;;5074177;28;20072;-61
2023/12/21 09:24:55;;;;;;;76.10;41.97;;;;;;;;;;5073698;28;20052;-61
2023/12/21 09:27:23;;;;;;;81.45;44.05;;;;;;;;;;5072879;28;20080;-61
2023/12/21 09:29:51;;;;;;;81.95;44.33;;;;;;;;;;5073575;28;20494;-61
2023/12/21 09:32:19;;;;;;;76.80;42.70;;;;;;;;;;5073652;28;20397;-61
2023/12/21 09:34:50;;;;;;;76.07;41.13;;;;;;;;;;5073761;28;20040;-61
2023/12/21 09:37:17;;;;;;;78.10;42.97;;;;;;;;;;5073637;28;20051;-61
2023/12/21 09:39:45;;;;;;;79.10;43.80;;;;;;;;;;5073553;28;20040;-61
2023/12/21 09:42:14;;;;;;;72.07;40.83;;;;;;;;;;5073825;28;20040;-61
2023/12/21 09:44:47;;;;;;;76.30;40.92;;;;;;;;;;5073619;28;20069;-60
2023/12/21 09:47:18;;;;;;;81.80;42.67;;;;;;;;;;5072247;28;20470;-61
2023/12/21 09:49:47;;;;;;;77.68;40.45;;;;;;;;;;5073557;28;20044;-61
2023/12/21 09:52:17;;;;;;;72.50;39.00;;;;;;;;;;5073269;28;20098;-61
2023/12/21 09:54:46;;;;;;;77.88;41.38;;;;;;;;;;5072367;28;20055;-61
2023/12/21 09:57:14;;;;;;;73.35;39.45;;;;;;;;;;5072130;28;20047;-61
2023/12/21 09:59:42;;;;;;;66.78;37.10;;;;;;;;;;5073121;28;20517;-61
2023/12/21 10:02:12;;;;;;;68.53;38.42;;;;;;;;;;5073154;28;20119;-61
2023/12/21 10:04:41;;;;;;;68.82;37.10;;;;;;;;;;5072882;28;20068;-61
2023/12/21 10:07:12;;;;;;;67.07;36.30;;;;;;;;;;5073058;28;20116;-61
2023/12/21 10:09:40;;;;;;;66.75;36.03;;;;;;;;;;5073166;28;20067;-61
2023/12/21 10:12:08;;;;;;;64.18;35.17;;;;;;;;;;5071568;28;20084;-61
2023/12/21 10:14:35;;;;;;;68.15;36.05;;;;;;;;;;5072939;28;20067;-61
2023/12/21 10:17:05;;;;;;;59.42;34.03;;;;;;;;;;5071914;28;20052;-61
2023/12/21 10:19:33;;;;;;;67.45;37.35;;;;;;;;;;5071517;28;20066;-61
2023/12/21 10:22:00;;;;;;;64.22;36.08;;;;;;;;;;5072907;28;20107;-61
2023/12/21 10:24:28;;;;;;;63.75;36.17;;;;;;;;;;5071443;28;20055;-61
2023/12/21 10:26:56;;;;;;;68.40;36.45;;;;;;;;;;5071796;28;20041;-61
2023/12/21 10:29:23;;;;;;;65.57;37.03;;;;;;;;;;5071155;28;20096;-61
2023/12/21 10:31:51;;;;;;;61.63;35.78;;;;;;;;;;5072891;28;20059;-61
2023/12/21 10:34:19;;;;;;;61.22;34.63;;;;;;;;;;5072659;28;20090;-61
2023/12/21 10:36:46;;;;;;;64.88;35.80;;;;;;;;;;5072712;28;20048;-61
2023/12/21 10:39:15;;;;;;;61.33;36.42;;;;;;;;;;5072790;28;20417;-61
2023/12/21 10:41:45;;;;;;;60.13;35.33;;;;;;;;;;5072579;28;20399;-61
2023/12/21 10:44:15;;;;;;;62.00;35.10;;;;;;;;;;5072887;28;20044;-61
2023/12/21 10:46:43;;;;;;;63.63;34.80;;;;;;;;;;5072759;28;20044;-61
2023/12/21 10:49:11;;;;;;;60.33;33.85;;;;;;;;;;5071298;28;20489;-61
2023/12/21 10:51:42;;;;;;;68.13;37.10;;;;;;;;;;5072530;28;20102;-61
2023/12/21 10:54:12;;;;;;;63.45;36.22;;;;;;;;;;5072477;28;20044;-61
2023/12/21 10:56:43;;;;;;;62.15;36.20;;;;;;;;;;5072376;28;20496;-61
2023/12/21 10:59:15;;;;;;;63.95;35.45;;;;;;;;;;5071296;28;20102;-61
2023/12/21 11:01:43;;;;;;;59.67;35.38;;;;;;;;;;5072406;28;20072;-61
2023/12/21 11:04:11;;;;;;;56.05;33.75;;;;;;;;;;5072597;28;20119;-61
2023/12/21 11:06:39;;;;;;;56.88;33.13;;;;;;;;;;5071079;28;20514;-61
2023/12/21 11:09:08;;;;;;;56.50;34.35;;;;;;;;;;5072215;28;20037;-61
2023/12/21 11:11:37;;;;;;;57.40;35.13;;;;;;;;;;5072382;28;20064;-61
2023/12/21 11:14:04;;;;;;;60.28;35.08;;;;;;;;;;5072336;28;20039;-61
2023/12/21 11:16:46;;;;;;;57.80;32.95;;;;;;;;;;5072314;28;20404;-61
2023/12/21 11:19:17;;;;;;;61.08;35.90;;;;;;;;;;5072237;28;20052;-61
2023/12/21 11:21:46;;;;;;;72.72;41.83;;;;;;;;;;5072284;28;20509;-61
2023/12/21 11:24:23;;;;;;;75.25;42.72;;;;;;;;;;5072119;28;20045;-61
2023/12/21 11:26:50;;;;;;;70.03;39.83;;;;;;;;;;5072730;28;20051;-61
2023/12/21 11:29:27;;;;;;;71.07;40.88;;;;;;;;;;5072011;28;20041;-61
2023/12/21 11:31:55;;;;;;;71.80;39.40;;;;;;;;;;5072121;28;20056;-61
2023/12/21 11:34:24;;;;;;;66.22;38.05;;;;;;;;;;5072396;28;20041;-61
2023/12/21 11:36:57;;;;;;;63.20;36.33;;;;;;;;;;5071048;28;20055;-61
2023/12/21 11:39:25;;;;;;;60.83;35.08;;;;;;;;;;5071996;28;20119;-61
2023/12/21 11:42:00;;;;;;;66.40;36.45;;;;;;;;;;5072697;28;20047;-61
2023/12/21 11:44:36;;;;;;;64.10;36.92;;;;;;;;;;5075639;28;20036;-61
2023/12/21 11:47:08;;;;;;;69.32;37.17;;;;;;;;;;5075514;28;20098;-61
2023/12/21 11:49:37;;;;;;;75.07;39.42;;;;;;;;;;5075467;28;20045;-61
2023/12/21 11:52:05;;;;;;;71.63;37.95;;;;;;;;;;5075971;28;20045;-61
2023/12/21 11:54:32;;;;;;;68.95;38.53;;;;;;;;;;5075506;28;20066;-61
2023/12/21 11:57:10;;;;;;;72.20;38.88;;;;;;;;;;5075812;28;20040;-61
2023/12/21 11:59:38;;;;;;;69.25;39.97;;;;;;;;;;5075163;28;20040;-61
2023/12/21 12:02:06;;;;;;;70.25;39.33;;;;;;;;;;5075126;28;20044;-61
2023/12/21 12:04:34;;;;;;;65.40;37.67;;;;;;;;;;5072649;28;20048;-63
2023/12/21 12:07:03;;;;;;;66.40;38.03;;;;;;;;;;5055206;28;20055;-63
2023/12/21 12:09:30;;;;;;;69.22;37.35;;;;;;;;;;5055313;28;20076;-62
2023/12/21 12:11:59;;;;;;;68.28;37.38;;;;;;;;;;5055249;28;20041;-61
2023/12/21 12:14:26;;;;;;;74.50;39.33;;;;;;;;;;5055221;28;20040;-64
2023/12/21 12:16:54;;;;;;;73.15;38.75;;;;;;;;;;5054915;28;20037;-61
2023/12/21 12:19:26;;;;;;;69.00;37.53;;;;;;;;;;5055245;28;20140;-61
2023/12/21 12:21:54;;;;;;;60.60;36.72;;;;;;;;;;5055605;28;20120;-61
2023/12/21 12:24:22;;;;;;;64.78;36.35;;;;;;;;;;5055268;28;20037;-61
2023/12/21 12:26:50;;;;;;;66.30;36.90;;;;;;;;;;5055265;28;20043;-62
2023/12/21 12:29:17;;;;;;;60.15;34.83;;;;;;;;;;5054786;28;20441;-61
2023/12/21 12:31:45;;;;;;;63.60;36.50;;;;;;;;;;5053629;28;20041;-62
2023/12/21 12:34:13;;;;;;;70.53;38.35;;;;;;;;;;5054791;28;20067;-62
2023/12/21 12:36:41;;;;;;;70.50;37.67;;;;;;;;;;5053597;28;20043;-62
2023/12/21 12:39:11;;;;;;;65.93;36.03;;;;;;;;;;5054861;28;20033;-62
2023/12/21 12:41:39;;;;;;;64.55;35.22;;;;;;;;;;5054587;28;20045;-62
2023/12/21 12:44:07;;;;;;;63.60;35.67;;;;;;;;;;5054885;28;20040;-62
2023/12/21 12:46:34;;;;;;;65.53;37.78;;;;;;;;;;5054648;28;20516;-62
2023/12/21 12:49:02;;;;;;;66.47;36.10;;;;;;;;;;5053125;28;20130;-62
2023/12/21 12:51:31;;;;;;;74.75;40.85;;;;;;;;;;5054535;28;20052;-62
2023/12/21 12:54:00;;;;;;;67.57;38.88;;;;;;;;;;5054108;28;20461;-62
2023/12/21 12:56:27;;;;;;;56.03;34.60;;;;;;;;;;5054418;28;20079;-62
2023/12/21 12:58:56;;;;;;;61.08;34.10;;;;;;;;;;5054244;28;20060;-62
2023/12/21 13:01:26;;;;;;;64.35;35.25;;;;;;;;;;5052999;28;20049;-62
2023/12/21 13:03:57;;;;;;;59.42;35.15;;;;;;;;;;5054298;28;20098;-62
2023/12/21 13:06:25;;;;;;;61.28;34.53;;;;;;;;;;5054204;28;20068;-62
2023/12/21 13:08:52;;;;;;;66.35;36.80;;;;;;;;;;5054354;28;20539;-62
2023/12/21 13:11:20;;;;;;;56.55;33.65;;;;;;;;;;5054381;28;20037;-62
2023/12/21 13:13:49;;;;;;;58.28;33.28;;;;;;;;;;5054075;28;20041;-62
2023/12/21 13:16:20;;;;;;;59.60;35.30;;;;;;;;;;5053966;28;20076;-62
2023/12/21 13:18:48;;;;;;;64.47;35.85;;;;;;;;;;5054115;28;20114;-62
2023/12/21 13:21:15;;;;;;;61.58;36.88;;;;;;;;;;5054236;28;20398;-62
2023/12/21 13:23:43;;;;;;;59.70;35.83;;;;;;;;;;5053913;28;20099;-62
2023/12/21 13:26:12;;;;;;;59.83;35.80;;;;;;;;;;5053644;28;20404;-62
2023/12/21 13:28:42;;;;;;;65.32;35.65;;;;;;;;;;5053779;28;20037;-62
2023/12/21 13:31:10;;;;;;;64.53;35.50;;;;;;;;;;5052421;28;20083;-63
2023/12/21 13:33:37;;;;;;;60.95;34.58;;;;;;;;;;5053676;28;20051;-62
2023/12/21 13:36:05;;;;;;;61.28;35.05;;;;;;;;;;5053656;28;20049;-62
2023/12/21 13:38:33;;;;;;;60.22;34.75;;;;;;;;;;5053507;28;20033;-62
2023/12/21 13:41:01;;;;;;;70.55;36.08;;;;;;;;;;5053492;28;20061;-62
2023/12/21 13:43:28;;;;;;;66.70;36.85;;;;;;;;;;5053388;28;20049;-62
2023/12/21 13:45:56;;;;;;;72.13;38.42;;;;;;;;;;5053719;28;20041;-62
2023/12/21 13:48:23;;;;;;;71.70;40.00;;;;;;;;;;5053377;28;20063;-62
2023/12/21 13:50:51;;;;;;;69.78;38.80;;;;;;;;;;5053462;28;20540;-62
2023/12/21 13:53:18;;;;;;;72.03;39.85;;;;;;;;;;5053260;28;20049;-62
2023/12/21 13:55:47;;;;;;;73.60;40.22;;;;;;;;;;5053285;28;20086;-62
2023/12/21 13:58:15;;;;;;;67.40;39.22;;;;;;;;;;5053209;28;20060;-62
2023/12/21 14:00:44;;;;;;;76.35;42.75;;;;;;;;;;5053002;28;20045;-63
2023/12/21 14:03:14;;;;;;;72.03;40.95;;;;;;;;;;5053121;28;20041;-62
2023/12/21 14:05:41;;;;;;;70.38;40.80;;;;;;;;;;5052417;28;20076;-63
2023/12/21 14:08:09;;;;;;;65.53;38.67;;;;;;;;;;5052964;28;20064;-62
2023/12/21 14:10:37;;;;;;;60.80;35.58;;;;;;;;;;5053030;28;20037;-62
2023/12/21 14:13:04;;;;;;;60.10;35.88;;;;;;;;;;5051619;28;20486;-61
2023/12/21 14:15:32;;;;;;;58.72;35.60;;;;;;;;;;5052950;28;20086;-62
2023/12/21 14:18:00;;;;;;;64.75;38.05;;;;;;;;;;5052842;28;20037;-62
2023/12/21 14:20:28;;;;;;;63.17;36.72;;;;;;;;;;5052619;28;20049;-62
2023/12/21 14:22:55;;;;;;;65.90;38.20;;;;;;;;;;5052761;28;20044;-62